Time;durP1;ratioP1;P1;durP2;ratioP2;P2;SDS_P1;SDS_P2;PMS_P1;PMS_P2;Temp;Humidity;BMP_temperature;BMP_pressure;BME280_temperature;BME280_humidity;BME280_pressure;Samples;Min_cycle;Max_cycle;Signal;HPM_P1;HPM_P2
2023/03/19 00:02:09;;;;;;;14.10;13.37;;;10.90;99.90;;;;;;5091875;28;20457;-69
2023/03/19 00:04:36;;;;;;;14.93;14.13;;;10.90;99.90;;;;;;5093238;28;20975;-70
2023/03/19 00:07:03;;;;;;;15.97;14.53;;;10.90;99.90;;;;;;5098129;28;20876;-69
2023/03/19 00:09:30;;;;;;;15.33;14.43;;;10.90;99.90;;;;;;5093864;28;20978;-69
2023/03/19 00:11:58;;;;;;;14.33;13.53;;;10.80;99.90;;;;;;5095422;28;21050;-70
2023/03/19 00:14:26;;;;;;;14.60;13.60;;;10.80;99.90;;;;;;5090051;28;20490;-69
2023/03/19 00:16:52;;;;;;;13.70;13.00;;;10.80;99.90;;;;;;5093035;28;20532;-69
2023/03/19 00:19:19;;;;;;;14.60;13.90;;;10.80;99.90;;;;;;5087602;28;21039;-69
2023/03/19 00:21:47;;;;;;;14.20;13.40;;;10.80;99.90;;;;;;5088632;28;20892;-69
2023/03/19 00:24:16;;;;;;;15.30;14.10;;;10.70;99.90;;;;;;5090576;28;20979;-71
2023/03/19 00:26:43;;;;;;;14.60;13.80;;;10.60;99.90;;;;;;5095172;28;20485;-69
2023/03/19 00:29:13;;;;;;;13.90;13.10;;;10.50;99.90;;;;;;5088608;28;20465;-70
2023/03/19 00:31:40;;;;;;;14.60;13.80;;;10.40;99.90;;;;;;5088531;28;20461;-69
2023/03/19 00:34:07;;;;;;;15.20;14.20;;;10.40;99.90;;;;;;5092190;28;20496;-70
2023/03/19 00:36:34;;;;;;;16.00;14.80;;;10.30;99.90;;;;;;5086329;28;20454;-69
2023/03/19 00:39:01;;;;;;;15.73;14.93;;;10.20;99.90;;;;;;5093141;28;20813;-70
2023/03/19 00:41:28;;;;;;;16.40;15.23;;;10.10;99.90;;;;;;5097879;28;20453;-70
2023/03/19 00:43:56;;;;;;;16.03;15.23;;;10.00;99.90;;;;;;5088840;28;20464;-70
2023/03/19 00:46:26;;;;;;;16.13;15.33;;;9.90;99.90;;;;;;5085842;28;20465;-69
2023/03/19 00:48:54;;;;;;;16.30;15.40;;;9.80;99.90;;;;;;5100793;28;20460;-69
2023/03/19 00:51:23;;;;;;;15.73;14.70;;;9.70;99.90;;;;;;5095888;28;20546;-69
2023/03/19 00:53:50;;;;;;;16.20;15.40;;;9.80;99.90;;;;;;5084147;28;20473;-68
2023/03/19 00:56:17;;;;;;;16.70;15.50;;;9.80;99.90;;;;;;5092684;28;20758;-69
2023/03/19 00:58:45;;;;;;;16.57;15.20;;;9.80;99.90;;;;;;5090971;28;20597;-69
2023/03/19 01:01:14;;;;;;;16.63;15.60;;;9.80;99.90;;;;;;5097552;28;20975;-68
2023/03/19 01:03:42;;;;;;;16.50;15.20;;;9.80;99.90;;;;;;5086676;28;20470;-69
2023/03/19 01:06:10;;;;;;;17.13;16.13;;;9.80;99.90;;;;;;5092721;28;20666;-69
2023/03/19 01:08:37;;;;;;;17.20;15.83;;;9.80;99.90;;;;;;5095686;28;20963;-69
2023/03/19 01:11:07;;;;;;;17.53;16.10;;;9.90;99.90;;;;;;5094565;28;20466;-68
2023/03/19 01:13:34;;;;;;;16.00;14.90;;;9.90;99.90;;;;;;5098346;28;20801;-69
2023/03/19 01:16:01;;;;;;;17.40;16.17;;;10.00;99.90;;;;;;5091539;28;20970;-69
2023/03/19 01:18:28;;;;;;;16.90;15.33;;;10.00;99.90;;;;;;5092452;28;20475;-70
2023/03/19 01:20:57;;;;;;;16.07;15.10;;;10.00;99.90;;;;;;5094314;28;20461;-69
2023/03/19 01:23:24;;;;;;;18.63;15.67;;;10.10;99.90;;;;;;5094150;28;20461;-69
2023/03/19 01:25:51;;;;;;;18.07;15.07;;;10.10;99.90;;;;;;5088119;28;20477;-69
2023/03/19 01:28:18;;;;;;;17.07;15.70;;;10.10;99.90;;;;;;5095835;28;20470;-69
2023/03/19 01:30:46;;;;;;;17.30;16.07;;;10.20;99.90;;;;;;5094789;28;20468;-70
2023/03/19 01:33:12;;;;;;;17.47;15.43;;;10.20;99.90;;;;;;5101275;28;20489;-69
2023/03/19 01:35:40;;;;;;;17.17;15.93;;;10.20;99.90;;;;;;5097482;28;20461;-69
2023/03/19 01:38:08;;;;;;;16.73;15.60;;;10.20;99.90;;;;;;5092858;28;20465;-69
2023/03/19 01:40:36;;;;;;;16.97;15.70;;;10.30;99.90;;;;;;5090862;28;20991;-69
2023/03/19 01:43:16;;;;;;;15.90;14.87;;;10.40;99.90;;;;;;5094271;28;20489;-69
2023/03/19 01:45:43;;;;;;;15.63;14.60;;;10.40;99.90;;;;;;5092769;28;20469;-68
2023/03/19 01:48:20;;;;;;;15.30;14.40;;;10.40;99.90;;;;;;5093648;28;20789;-70
2023/03/19 01:50:52;;;;;;;16.77;15.47;;;10.40;99.90;;;;;;5096158;28;20459;-69
2023/03/19 01:53:24;;;;;;;16.90;15.50;;;10.40;99.90;;;;;;5091788;28;20493;-69
2023/03/19 01:55:52;;;;;;;16.53;15.33;;;10.50;99.90;;;;;;5098025;28;20917;-69
2023/03/19 01:58:19;;;;;;;16.87;15.67;;;10.50;99.90;;;;;;5097625;28;20469;-69
2023/03/19 02:00:47;;;;;;;17.83;16.67;;;10.50;99.90;;;;;;5093994;28;20466;-69
2023/03/19 02:03:15;;;;;;;17.47;15.87;;;10.50;99.90;;;;;;5097593;28;21037;-69
2023/03/19 02:05:44;;;;;;;16.77;15.67;;;10.50;99.90;;;;;;5095124;28;20475;-68
2023/03/19 02:08:14;;;;;;;16.33;14.90;;;10.60;99.90;;;;;;5089315;28;20462;-68
2023/03/19 02:10:44;;;;;;;16.40;15.37;;;10.50;99.90;;;;;;5093231;28;20466;-71
2023/03/19 02:13:11;;;;;;;16.47;15.47;;;10.60;99.90;;;;;;5093226;28;20462;-68
2023/03/19 02:15:38;;;;;;;16.73;15.20;;;10.60;99.90;;;;;;5097961;28;20570;-69
2023/03/19 02:18:06;;;;;;;15.57;14.60;;;10.60;99.90;;;;;;5096958;28;20927;-69
2023/03/19 02:20:36;;;;;;;16.90;15.43;;;10.50;99.90;;;;;;5091427;28;20462;-69
2023/03/19 02:23:12;;;;;;;16.03;15.03;;;10.60;99.90;;;;;;5097242;28;20988;-69
2023/03/19 02:25:44;;;;;;;16.50;15.50;;;10.60;99.90;;;;;;5091146;28;20522;-69
2023/03/19 02:28:14;;;;;;;17.60;16.33;;;10.60;99.90;;;;;;5094004;28;20530;-71
2023/03/19 02:30:43;;;;;;;17.30;16.20;;;10.60;99.90;;;;;;5095425;28;20461;-69
2023/03/19 02:33:12;;;;;;;17.47;16.30;;;10.50;99.90;;;;;;5093960;28;20972;-70
2023/03/19 02:35:40;;;;;;;17.70;16.30;;;10.50;99.90;;;;;;5096374;28;21029;-71
2023/03/19 02:38:06;;;;;;;16.27;15.27;;;10.50;99.90;;;;;;5095003;28;20465;-69
2023/03/19 02:40:38;;;;;;;17.73;16.17;;;10.50;99.90;;;;;;5098381;28;20462;-69
2023/03/19 02:43:05;;;;;;;16.83;15.43;;;10.60;99.90;;;;;;5091000;28;20494;-71
2023/03/19 02:45:34;;;;;;;15.57;14.47;;;10.60;99.90;;;;;;5089701;28;20474;-71
2023/03/19 02:48:01;;;;;;;16.43;15.33;;;10.60;99.90;;;;;;5098481;28;20825;-69
2023/03/19 02:50:28;;;;;;;15.10;13.87;;;10.60;99.90;;;;;;5093001;28;20830;-70
2023/03/19 02:52:55;;;;;;;13.23;12.40;;;10.60;99.90;;;;;;5095912;28;20525;-69
2023/03/19 02:55:21;;;;;;;12.93;12.00;;;10.70;99.90;;;;;;5091752;28;20487;-69
2023/03/19 02:57:48;;;;;;;12.40;11.60;;;10.70;99.90;;;;;;5087004;28;20468;-69
2023/03/19 03:00:17;;;;;;;13.30;12.03;;;10.70;99.90;;;;;;5090347;28;21024;-70
2023/03/19 03:02:46;;;;;;;10.47;9.77;;;10.70;99.90;;;;;;5097887;28;20584;-70
2023/03/19 03:05:13;;;;;;;10.53;9.93;;;10.70;99.90;;;;;;5099456;28;20461;-69
2023/03/19 03:07:42;;;;;;;11.63;10.43;;;10.70;99.90;;;;;;5089689;28;20553;-68
2023/03/19 03:10:09;;;;;;;10.50;9.80;;;10.60;99.90;;;;;;5097613;28;20464;-69
2023/03/19 03:12:37;;;;;;;9.53;8.93;;;10.50;99.90;;;;;;5093222;28;20461;-70
2023/03/19 03:15:07;;;;;;;10.03;9.10;;;10.40;99.90;;;;;;5094012;28;20509;-69
2023/03/19 03:17:36;;;;;;;9.70;8.90;;;10.40;99.90;;;;;;5090853;28;20473;-68
2023/03/19 03:20:08;;;;;;;10.07;9.10;;;10.30;99.90;;;;;;5096687;28;20825;-69
2023/03/19 03:22:35;;;;;;;8.87;8.20;;;10.30;99.90;;;;;;5095339;28;20464;-69
2023/03/19 03:25:02;;;;;;;8.83;8.13;;;10.30;99.90;;;;;;5093557;28;20491;-69
2023/03/19 03:27:30;;;;;;;10.40;9.37;;;10.20;99.90;;;;;;5091559;28;20969;-70
2023/03/19 03:29:57;;;;;;;8.77;8.07;;;10.30;99.90;;;;;;5088449;28;20499;-70
2023/03/19 03:32:24;;;;;;;9.07;8.47;;;10.30;99.90;;;;;;5095739;28;20782;-69
2023/03/19 03:34:51;;;;;;;7.80;7.20;;;10.40;99.90;;;;;;5093612;28;20482;-68
2023/03/19 03:37:19;;;;;;;7.43;6.90;;;10.40;99.90;;;;;;5091860;28;20453;-69
2023/03/19 03:39:45;;;;;;;7.60;6.80;;;10.60;99.90;;;;;;5087180;28;20557;-70
2023/03/19 03:42:12;;;;;;;7.10;6.60;;;10.70;99.90;;;;;;5086645;28;20490;-68
2023/03/19 03:44:39;;;;;;;8.50;6.27;;;10.70;99.90;;;;;;5093927;28;21213;-70
2023/03/19 03:47:06;;;;;;;6.47;6.07;;;10.70;99.90;;;;;;5090444;28;20977;-69
2023/03/19 03:49:33;;;;;;;7.73;6.47;;;10.80;99.90;;;;;;5099995;28;20806;-69
2023/03/19 03:52:00;;;;;;;7.13;6.53;;;10.80;99.90;;;;;;5092174;28;20680;-69
2023/03/19 03:54:28;;;;;;;7.53;5.90;;;10.80;99.90;;;;;;5095488;28;20496;-69
2023/03/19 03:56:55;;;;;;;6.53;5.90;;;10.80;99.90;;;;;;5095827;28;20465;-70
2023/03/19 03:59:24;;;;;;;6.47;6.00;;;10.80;99.90;;;;;;5100955;28;20462;-69
2023/03/19 04:01:51;;;;;;;7.63;6.70;;;10.80;99.90;;;;;;5090490;28;20487;-69
2023/03/19 04:04:18;;;;;;;7.47;6.27;;;10.80;99.90;;;;;;5088913;28;20872;-70
2023/03/19 04:06:45;;;;;;;6.50;5.90;;;10.80;99.90;;;;;;5084138;28;20557;-71
2023/03/19 04:09:12;;;;;;;7.97;6.93;;;10.90;99.90;;;;;;5096445;28;21497;-68
2023/03/19 04:11:41;;;;;;;6.70;5.20;;;11.00;99.90;;;;;;5098063;28;20485;-68
2023/03/19 04:14:08;;;;;;;5.23;4.83;;;11.00;99.90;;;;;;5090789;28;20470;-68
2023/03/19 04:16:36;;;;;;;7.77;6.17;;;11.00;99.90;;;;;;5089851;28;20450;-68
2023/03/19 04:19:03;;;;;;;6.40;5.90;;;11.10;99.90;;;;;;5086733;28;20468;-69
2023/03/19 04:21:30;;;;;;;6.87;6.27;;;11.10;99.90;;;;;;5088598;28;20784;-68
2023/03/19 04:23:58;;;;;;;5.30;5.00;;;11.10;99.90;;;;;;5099644;28;20917;-69
2023/03/19 04:26:25;;;;;;;7.67;6.60;;;11.10;99.90;;;;;;5089848;28;20528;-70
2023/03/19 04:28:53;;;;;;;6.73;6.23;;;11.10;99.90;;;;;;5094950;28;20526;-68
2023/03/19 04:31:19;;;;;;;5.80;5.40;;;11.20;99.90;;;;;;5086559;28;20466;-68
2023/03/19 04:33:46;;;;;;;5.67;5.23;;;11.20;99.90;;;;;;5091740;28;20458;-69
2023/03/19 04:36:13;;;;;;;6.57;6.17;;;11.30;99.90;;;;;;5094772;28;20481;-70
2023/03/19 04:38:41;;;;;;;6.80;6.27;;;11.20;99.90;;;;;;5088267;28;20462;-69
2023/03/19 04:41:08;;;;;;;7.03;5.93;;;11.20;99.90;;;;;;5086960;28;20501;-69
2023/03/19 04:43:35;;;;;;;6.50;6.00;;;11.20;99.90;;;;;;5099029;28;20557;-69
2023/03/19 04:46:03;;;;;;;5.93;5.53;;;11.20;99.90;;;;;;5086552;28;21011;-69
2023/03/19 04:48:31;;;;;;;6.23;5.73;;;11.20;99.90;;;;;;5087744;28;20466;-68
2023/03/19 04:50:57;;;;;;;7.47;6.97;;;11.20;99.90;;;;;;5087213;28;20868;-68
2023/03/19 04:53:24;;;;;;;8.53;7.70;;;11.20;99.90;;;;;;5085123;28;20460;-68
2023/03/19 04:55:51;;;;;;;9.70;9.00;;;11.00;99.90;;;;;;5085660;28;20513;-68
2023/03/19 04:58:18;;;;;;;10.60;9.90;;;11.00;99.90;;;;;;5092347;28;20469;-68
2023/03/19 05:00:47;;;;;;;11.67;10.97;;;10.90;99.90;;;;;;5089343;28;20472;-67
2023/03/19 05:03:15;;;;;;;11.60;10.80;;;10.80;99.90;;;;;;5088026;28;20457;-68
2023/03/19 05:05:42;;;;;;;12.93;12.03;;;10.70;99.90;;;;;;5090010;28;20492;-68
2023/03/19 05:08:10;;;;;;;11.73;11.13;;;10.70;99.90;;;;;;5093444;28;20850;-70
2023/03/19 05:10:38;;;;;;;13.57;12.27;;;10.70;99.90;;;;;;5090310;28;20996;-69
2023/03/19 05:13:05;;;;;;;12.60;11.80;;;10.70;99.90;;;;;;5099101;28;20519;-70
2023/03/19 05:15:32;;;;;;;13.37;12.27;;;10.70;99.90;;;;;;5089958;28;20516;-69
2023/03/19 05:17:59;;;;;;;12.90;12.17;;;10.70;99.90;;;;;;5087289;28;20969;-69
2023/03/19 05:20:27;;;;;;;13.40;12.50;;;10.70;99.90;;;;;;5087458;28;20458;-67
2023/03/19 05:22:54;;;;;;;14.00;12.90;;;10.70;99.90;;;;;;5089024;28;21186;-68
2023/03/19 05:25:21;;;;;;;14.83;13.53;;;10.70;99.90;;;;;;5092326;28;20476;-69
2023/03/19 05:27:48;;;;;;;16.03;14.73;;;10.70;99.90;;;;;;5094621;28;20465;-69
2023/03/19 05:30:17;;;;;;;15.13;13.90;;;10.70;99.90;;;;;;5091981;28;20474;-68
2023/03/19 05:32:45;;;;;;;15.50;14.60;;;10.70;99.90;;;;;;5091413;28;20550;-70
2023/03/19 05:35:13;;;;;;;15.77;14.77;;;10.70;99.90;;;;;;5089536;28;20478;-69
2023/03/19 05:37:41;;;;;;;15.13;14.30;;;10.70;99.90;;;;;;5090309;28;20477;-70
2023/03/19 05:40:09;;;;;;;15.80;14.80;;;10.70;99.90;;;;;;5092724;28;21054;-69
2023/03/19 05:42:36;;;;;;;14.67;13.87;;;10.80;99.90;;;;;;5094550;28;20492;-70
2023/03/19 05:45:04;;;;;;;14.73;13.63;;;10.80;99.90;;;;;;5095358;28;20554;-69
2023/03/19 05:47:31;;;;;;;14.77;13.87;;;10.80;99.90;;;;;;5087621;28;20466;-70
2023/03/19 05:49:58;;;;;;;15.17;13.90;;;10.80;99.90;;;;;;5086737;28;20600;-69
2023/03/19 05:52:25;;;;;;;15.00;13.90;;;10.70;99.90;;;;;;5089638;28;20493;-68
2023/03/19 05:54:53;;;;;;;14.37;13.47;;;10.70;99.90;;;;;;5087795;28;20495;-68
2023/03/19 05:57:20;;;;;;;15.90;14.90;;;10.70;99.90;;;;;;5087120;28;20477;-68
2023/03/19 05:59:47;;;;;;;15.33;14.23;;;10.60;99.90;;;;;;5095407;28;20461;-69
2023/03/19 06:02:14;;;;;;;15.03;13.70;;;10.60;99.90;;;;;;5089536;28;21022;-69
2023/03/19 06:04:41;;;;;;;14.27;13.20;;;10.60;99.90;;;;;;5092756;28;20834;-69
2023/03/19 06:07:08;;;;;;;14.57;13.67;;;10.60;99.90;;;;;;5091097;28;20526;-69
2023/03/19 06:09:35;;;;;;;14.63;13.73;;;10.60;99.90;;;;;;5092824;28;20585;-69
2023/03/19 06:12:03;;;;;;;14.07;13.17;;;10.60;99.90;;;;;;5095627;28;20454;-68
2023/03/19 06:14:30;;;;;;;13.90;12.97;;;10.60;99.90;;;;;;5100299;28;20476;-69
2023/03/19 06:16:57;;;;;;;13.57;12.67;;;10.60;99.90;;;;;;5096464;28;20471;-69
2023/03/19 06:19:25;;;;;;;17.87;12.33;;;10.60;99.90;;;;;;5091210;28;20461;-70
2023/03/19 06:21:52;;;;;;;13.57;12.57;;;10.70;99.90;;;;;;5099887;28;20579;-70
2023/03/19 06:24:19;;;;;;;13.60;12.70;;;10.70;99.90;;;;;;5098558;28;20466;-69
2023/03/19 06:26:46;;;;;;;14.13;13.13;;;10.60;99.90;;;;;;5094844;28;20887;-69
2023/03/19 06:29:14;;;;;;;13.03;12.13;;;10.60;99.90;;;;;;5092356;28;20457;-69
2023/03/19 06:31:41;;;;;;;13.80;12.80;;;10.60;99.90;;;;;;5090321;28;20511;-69
2023/03/19 06:34:08;;;;;;;13.00;12.20;;;10.60;99.90;;;;;;5094536;28;20902;-70
2023/03/19 06:36:35;;;;;;;12.77;11.90;;;10.60;99.90;;;;;;5096385;28;20503;-68
2023/03/19 06:39:02;;;;;;;12.90;12.00;;;10.60;99.90;;;;;;5099332;28;20497;-69
2023/03/19 06:41:28;;;;;;;12.27;11.47;;;10.70;99.90;;;;;;5095502;28;20978;-69
2023/03/19 06:43:55;;;;;;;12.73;11.87;;;10.70;99.90;;;;;;5087806;28;20538;-70
2023/03/19 06:46:23;;;;;;;11.10;10.40;;;10.70;99.90;;;;;;5093347;28;20964;-68
2023/03/19 06:48:50;;;;;;;12.73;11.83;;;10.60;99.90;;;;;;5093867;28;20489;-69
2023/03/19 06:51:17;;;;;;;13.47;12.47;;;10.70;99.90;;;;;;5094343;28;20470;-69
2023/03/19 06:53:44;;;;;;;12.07;11.03;;;10.80;99.90;;;;;;5094200;28;20470;-69
2023/03/19 06:56:11;;;;;;;11.67;10.80;;;10.90;99.90;;;;;;5090295;28;20516;-70
2023/03/19 06:58:38;;;;;;;11.53;10.67;;;11.00;99.90;;;;;;5094588;28;20866;-69
2023/03/19 07:01:06;;;;;;;11.93;10.77;;;11.10;99.90;;;;;;5088005;28;20489;-69
2023/03/19 07:03:34;;;;;;;11.33;10.53;;;11.30;99.90;;;;;;5088373;28;20921;-69
2023/03/19 07:06:02;;;;;;;11.60;10.70;;;11.40;99.90;;;;;;5089269;28;21297;-69
2023/03/19 07:08:29;;;;;;;11.10;10.20;;;11.50;99.90;;;;;;5098423;28;20461;-70
2023/03/19 07:10:56;;;;;;;10.73;9.93;;;11.60;99.90;;;;;;5098747;28;20466;-70
2023/03/19 07:13:23;;;;;;;10.13;9.07;;;11.70;99.90;;;;;;5089229;28;20844;-69
2023/03/19 07:15:49;;;;;;;10.67;9.80;;;11.70;99.90;;;;;;5091712;28;20492;-68
2023/03/19 07:18:16;;;;;;;11.80;10.67;;;11.70;99.90;;;;;;5090217;28;20981;-71
2023/03/19 07:20:45;;;;;;;10.30;9.27;;;11.80;99.90;;;;;;5090235;28;20457;-69
2023/03/19 07:23:12;;;;;;;11.10;9.90;;;11.80;99.90;;;;;;5097563;28;20469;-68
2023/03/19 07:25:38;;;;;;;9.37;8.57;;;12.10;99.90;;;;;;5098542;28;20477;-70
2023/03/19 07:28:05;;;;;;;8.07;7.37;;;12.30;99.90;;;;;;5091498;28;20945;-69
2023/03/19 07:30:32;;;;;;;8.37;7.57;;;12.30;99.90;;;;;;5093653;28;20472;-69
2023/03/19 07:32:59;;;;;;;10.53;9.63;;;12.10;99.90;;;;;;5088245;28;21271;-68
2023/03/19 07:35:26;;;;;;;10.57;9.67;;;12.00;99.90;;;;;;5096986;28;20568;-70
2023/03/19 07:37:55;;;;;;;10.53;9.70;;;12.00;99.90;;;;;;5085621;28;20461;-70
2023/03/19 07:40:21;;;;;;;10.00;9.10;;;12.10;99.90;;;;;;5089802;28;20464;-69
2023/03/19 07:42:48;;;;;;;10.70;9.60;;;12.10;99.90;;;;;;5092389;28;20489;-70
2023/03/19 07:45:15;;;;;;;10.63;9.57;;;12.20;99.90;;;;;;5097607;28;20530;-70
2023/03/19 07:47:41;;;;;;;9.90;8.90;;;12.30;99.90;;;;;;5093795;28;20564;-70
2023/03/19 07:50:09;;;;;;;10.50;9.43;;;12.50;99.90;;;;;;5097705;28;20472;-69
2023/03/19 07:52:36;;;;;;;11.27;10.10;;;12.60;99.90;;;;;;5090830;28;20450;-69
2023/03/19 07:55:05;;;;;;;9.23;8.33;;;13.00;99.90;;;;;;5086184;28;21132;-70
2023/03/19 07:57:32;;;;;;;9.70;8.77;;;13.30;99.90;;;;;;5098075;28;20450;-70
2023/03/19 07:59:59;;;;;;;9.10;8.30;;;13.50;99.90;;;;;;5093645;28;20539;-71
2023/03/19 08:02:26;;;;;;;9.17;8.37;;;13.20;99.90;;;;;;5093005;28;20461;-68
2023/03/19 08:04:54;;;;;;;7.90;7.10;;;13.40;99.90;;;;;;5092820;28;20542;-69
2023/03/19 08:07:21;;;;;;;8.10;7.30;;;13.50;99.90;;;;;;5094268;28;20562;-69
2023/03/19 08:09:48;;;;;;;7.83;6.70;;;13.60;99.90;;;;;;5089203;28;20815;-71
2023/03/19 08:12:16;;;;;;;8.03;7.10;;;13.60;99.90;;;;;;5088926;28;20473;-69
2023/03/19 08:14:43;;;;;;;7.73;7.07;;;13.70;99.90;;;;;;5089835;28;20466;-71
2023/03/19 08:17:11;;;;;;;8.00;7.30;;;13.80;99.90;;;;;;5088330;28;20497;-69
2023/03/19 08:19:38;;;;;;;7.70;7.00;;;13.80;99.90;;;;;;5089307;28;20975;-69
2023/03/19 08:22:05;;;;;;;8.13;7.40;;;13.90;99.90;;;;;;5089323;28;20473;-69
2023/03/19 08:24:32;;;;;;;8.77;8.03;;;13.90;99.90;;;;;;5092577;28;20457;-69
2023/03/19 08:26:59;;;;;;;7.83;7.13;;;13.90;99.90;;;;;;5087893;28;20502;-70
2023/03/19 08:29:28;;;;;;;7.00;6.30;;;14.20;99.90;;;;;;5092975;28;20461;-68
2023/03/19 08:31:57;;;;;;;7.70;7.10;;;14.30;99.90;;;;;;5086381;28;20466;-69
2023/03/19 08:34:24;;;;;;;7.47;6.87;;;14.50;99.90;;;;;;5091332;28;20469;-69
2023/03/19 08:36:51;;;;;;;8.13;7.43;;;14.60;99.90;;;;;;5096576;28;20983;-69
2023/03/19 08:39:17;;;;;;;9.10;8.40;;;14.90;99.90;;;;;;5092084;28;20515;-70
2023/03/19 08:41:44;;;;;;;8.20;7.70;;;15.20;99.90;;;;;;5096913;28;20546;-70
2023/03/19 08:44:11;;;;;;;8.93;8.33;;;15.30;99.90;;;;;;5089257;28;20465;-69
2023/03/19 08:46:41;;;;;;;9.50;8.73;;;15.20;99.90;;;;;;5089694;28;20469;-69
2023/03/19 08:49:08;;;;;;;9.27;8.67;;;15.20;99.90;;;;;;5091807;28;20905;-69
2023/03/19 08:51:35;;;;;;;10.53;9.73;;;15.00;99.90;;;;;;5095219;28;20457;-70
2023/03/19 08:54:02;;;;;;;9.93;9.33;;;15.10;99.90;;;;;;5089255;28;21021;-70
2023/03/19 08:56:29;;;;;;;11.23;10.53;;;15.30;99.90;;;;;;5089356;28;20500;-70
2023/03/19 08:58:56;;;;;;;11.70;11.00;;;15.00;99.90;;;;;;5088620;28;20454;-70
2023/03/19 09:01:23;;;;;;;10.67;10.00;;;15.40;99.90;;;;;;5088421;28;21041;-70
2023/03/19 09:03:52;;;;;;;11.60;10.90;;;15.80;99.90;;;;;;5095107;28;20977;-70
2023/03/19 09:06:18;;;;;;;11.60;10.90;;;15.90;99.90;;;;;;5090699;28;20966;-67
2023/03/19 09:08:45;;;;;;;11.10;10.40;;;15.90;99.90;;;;;;5097288;28;20468;-69
2023/03/19 09:11:15;;;;;;;11.77;11.17;;;15.60;99.90;;;;;;5089202;28;20701;-68
2023/03/19 09:13:42;;;;;;;12.50;11.80;;;15.30;99.90;;;;;;5087195;28;20556;-69
2023/03/19 09:16:09;;;;;;;12.77;11.97;;;15.30;99.90;;;;;;5087000;28;20481;-69
2023/03/19 09:18:36;;;;;;;13.50;12.63;;;15.60;99.90;;;;;;5085303;28;20829;-71
2023/03/19 09:21:05;;;;;;;12.87;12.10;;;15.70;99.90;;;;;;5095803;28;20467;-70
2023/03/19 09:23:32;;;;;;;12.90;12.10;;;15.70;99.90;;;;;;5090257;28;20464;-70
2023/03/19 09:25:59;;;;;;;13.37;12.67;;;15.80;99.90;;;;;;5090375;28;20484;-70
2023/03/19 09:28:26;;;;;;;13.67;12.90;;;15.70;99.90;;;;;;5092133;28;21312;-69
2023/03/19 09:30:53;;;;;;;14.37;13.57;;;15.40;99.90;;;;;;5085860;28;20782;-69
2023/03/19 09:33:21;;;;;;;14.03;13.13;;;15.10;99.90;;;;;;5101964;28;20814;-68
2023/03/19 09:35:53;;;;;;;13.00;12.23;;;14.90;99.90;;;;;;5086663;28;20485;-70
2023/03/19 09:38:21;;;;;;;14.40;13.40;;;14.70;99.90;;;;;;5089468;28;20453;-69
2023/03/19 09:40:53;;;;;;;13.07;12.23;;;14.60;99.90;;;;;;5086554;28;20972;-71
2023/03/19 09:43:35;;;;;;;14.80;13.70;;;14.60;99.90;;;;;;5088443;28;20584;-70
2023/03/19 09:46:08;;;;;;;15.23;14.10;;;14.60;99.90;;;;;;5089848;28;20528;-68
2023/03/19 09:48:40;;;;;;;13.47;12.67;;;14.90;99.90;;;;;;5094822;28;20511;-69
2023/03/19 09:51:14;;;;;;;14.43;13.47;;;15.40;99.90;;;;;;5097017;28;20541;-70
2023/03/19 09:53:47;;;;;;;15.50;14.50;;;15.50;99.90;;;;;;5093161;28;20872;-70
2023/03/19 09:56:18;;;;;;;14.70;13.90;;;15.50;99.90;;;;;;5093802;28;20956;-69
2023/03/19 09:58:45;;;;;;;15.13;14.20;;;15.50;99.90;;;;;;5095135;28;20465;-70
2023/03/19 10:01:24;;;;;;;15.60;14.70;;;15.00;99.90;;;;;;5099832;28;20473;-71
2023/03/19 10:04:06;;;;;;;15.70;14.60;;;15.20;99.90;;;;;;5093672;28;20461;-72
2023/03/19 10:06:35;;;;;;;15.03;13.97;;;15.30;99.90;;;;;;5097810;28;20466;-71
2023/03/19 10:09:26;;;;;;;15.33;14.43;;;15.20;99.90;;;;;;5102617;28;20462;-70
2023/03/19 10:12:08;;;;;;;14.70;13.70;;;15.20;99.90;;;;;;5095690;28;20501;-71
2023/03/19 10:15:14;;;;;;;15.67;14.67;;;15.40;99.90;;;;;;5093871;28;20885;-71
2023/03/19 10:17:47;;;;;;;15.60;14.70;;;16.10;99.90;;;;;;5056438;28;20505;-71
2023/03/19 10:20:23;;;;;;;15.57;14.67;;;17.30;99.90;;;;;;5091042;28;20524;-70
2023/03/19 10:22:54;;;;;;;15.57;14.53;;;17.70;99.90;;;;;;5092457;28;20510;-70
2023/03/19 10:25:27;;;;;;;15.77;14.60;;;17.10;99.90;;;;;;5088716;28;20484;-70
2023/03/19 10:28:00;;;;;;;15.53;14.53;;;16.50;99.90;;;;;;5088684;28;20853;-69
2023/03/19 10:30:29;;;;;;;15.73;14.70;;;15.90;99.90;;;;;;5095578;28;20548;-70
2023/03/19 10:33:06;;;;;;;15.10;14.20;;;15.40;99.90;;;;;;5092335;28;20557;-70
2023/03/19 10:35:41;;;;;;;15.10;14.10;;;15.10;99.90;;;;;;5089708;28;20963;-70
2023/03/19 10:38:19;;;;;;;15.20;14.20;;;14.90;99.90;;;;;;5091559;28;21431;-69
2023/03/19 10:41:03;;;;;;;15.07;13.83;;;14.70;99.90;;;;;;5095197;28;20489;-71
2023/03/19 10:43:33;;;;;;;16.67;15.37;;;14.40;99.90;;;;;;5096022;28;20680;-70
2023/03/19 10:46:00;;;;;;;14.80;13.70;;;14.20;99.90;;;;;;5093188;28;20964;-69
2023/03/19 10:48:28;;;;;;;14.90;13.80;;;14.00;99.90;;;;;;5102376;28;20867;-70
2023/03/19 10:50:58;;;;;;;13.77;12.67;;;13.90;99.90;;;;;;5095287;28;20475;-69
2023/03/19 10:53:33;;;;;;;13.93;12.93;;;13.70;99.90;;;;;;5090258;28;20461;-69
2023/03/19 10:56:06;;;;;;;12.00;11.10;;;13.80;99.90;;;;;;5093603;28;20901;-70
2023/03/19 10:58:35;;;;;;;13.23;11.97;;;13.80;99.90;;;;;;5089856;28;20465;-70
2023/03/19 11:01:05;;;;;;;12.80;11.90;;;13.70;99.90;;;;;;5093279;28;20462;-70
2023/03/19 11:03:34;;;;;;;13.73;12.57;;;13.70;99.90;;;;;;5092252;28;20465;-70
2023/03/19 11:06:17;;;;;;;12.87;11.80;;;13.90;99.90;;;;;;5094622;28;20488;-71
2023/03/19 11:08:54;;;;;;;13.20;12.23;;;13.90;99.90;;;;;;5088797;28;20996;-70
2023/03/19 11:11:33;;;;;;;13.40;12.30;;;13.90;99.90;;;;;;5089148;28;20468;-69
2023/03/19 11:14:07;;;;;;;13.47;12.47;;;14.10;99.90;;;;;;5087342;28;20982;-69
2023/03/19 11:16:47;;;;;;;15.30;14.10;;;14.40;99.90;;;;;;5088326;28;20744;-69
2023/03/19 11:19:20;;;;;;;12.93;12.00;;;14.40;99.90;;;;;;5093964;28;21029;-71
2023/03/19 11:22:00;;;;;;;13.30;12.30;;;14.50;99.90;;;;;;5093956;28;20457;-70
2023/03/19 11:24:33;;;;;;;12.97;11.90;;;14.30;99.90;;;;;;5089574;28;20523;-71
2023/03/19 11:27:02;;;;;;;12.00;11.10;;;14.20;99.90;;;;;;5091456;28;20543;-70
2023/03/19 11:29:44;;;;;;;12.57;11.67;;;14.30;99.90;;;;;;5090240;28;20865;-73
2023/03/19 11:32:28;;;;;;;13.20;12.20;;;14.70;99.90;;;;;;5087021;28;20751;-69
2023/03/19 11:35:00;;;;;;;12.93;11.97;;;15.20;99.90;;;;;;5092676;28;20466;-69
2023/03/19 11:37:33;;;;;;;13.00;12.10;;;15.50;99.90;;;;;;5093626;28;20504;-71
2023/03/19 11:40:09;;;;;;;14.97;13.87;;;16.20;99.90;;;;;;5087811;28;20469;-70
2023/03/19 11:42:59;;;;;;;14.80;13.67;;;17.20;99.90;;;;;;5082404;28;20482;-71
2023/03/19 11:45:32;;;;;;;15.50;14.63;;;17.80;99.90;;;;;;5080670;28;20551;-70
2023/03/19 11:48:14;;;;;;;14.80;13.80;;;17.70;99.90;;;;;;5074416;28;20462;-70
2023/03/19 11:50:50;;;;;;;14.93;14.03;;;17.70;99.90;;;;;;5085561;28;20457;-71
2023/03/19 11:53:25;;;;;;;15.50;14.70;;;18.40;99.90;;;;;;5081022;28;20462;-69
2023/03/19 11:56:00;;;;;;;17.67;16.47;;;18.90;99.90;;;;;;5081614;28;20462;-70
2023/03/19 11:58:57;;;;;;;16.80;15.80;;;18.40;99.90;;;;;;5086132;28;20522;-69
2023/03/19 12:01:40;;;;;;;16.53;15.53;;;17.60;99.90;;;;;;5076421;28;20521;-70
2023/03/19 12:04:30;;;;;;;16.70;15.40;;;17.00;99.90;;;;;;5084756;28;20493;-69
2023/03/19 12:07:06;;;;;;;13.50;12.70;;;17.00;99.90;;;;;;5086322;28;20466;-69
2023/03/19 12:09:40;;;;;;;13.70;12.90;;;18.10;99.90;;;;;;5095894;28;20464;-70
2023/03/19 12:12:17;;;;;;;15.07;14.10;;;19.10;99.90;;;;;;5086795;28;20465;-69
2023/03/19 12:14:59;;;;;;;14.83;13.73;;;19.20;99.90;;;;;;5086088;28;20461;-69
2023/03/19 12:17:44;;;;;;;16.10;14.87;;;20.30;99.90;;;;;;5084665;28;20477;-71
2023/03/19 12:20:28;;;;;;;15.43;14.43;;;21.00;99.90;;;;;;5083490;28;20471;-70
2023/03/19 12:23:05;;;;;;;16.10;15.20;;;20.90;99.90;;;;;;5083832;28;20465;-69
2023/03/19 12:25:55;;;;;;;15.30;14.50;;;21.20;99.90;;;;;;5082669;28;20522;-70
2023/03/19 12:28:26;;;;;;;17.30;16.20;;;20.20;99.90;;;;;;5085064;28;20465;-69
2023/03/19 12:31:14;;;;;;;19.20;17.73;;;18.30;99.90;;;;;;5087708;28;20836;-71
2023/03/19 12:33:46;;;;;;;17.90;16.80;;;17.50;99.90;;;;;;5086653;28;20522;-70
2023/03/19 12:36:17;;;;;;;17.23;16.13;;;17.20;99.90;;;;;;5089888;28;20544;-71
2023/03/19 12:38:48;;;;;;;17.57;16.37;;;17.10;99.90;;;;;;5085167;28;20458;-70
2023/03/19 12:41:21;;;;;;;16.93;15.83;;;16.70;99.90;;;;;;5088631;28;20550;-69
2023/03/19 12:43:54;;;;;;;18.60;17.20;;;16.30;99.90;;;;;;5084713;28;20454;-70
2023/03/19 12:46:27;;;;;;;18.43;16.90;;;15.80;99.90;;;;;;5087173;28;20466;-71